sensor_id;sensor_type;location;lat;lon;timestamp;P1;durP1;ratioP1;P2;durP2;ratioP2
46589;SDS011;32313;48.722;9.362;2022-12-17T00:01:51;40.37;;;36.17;;
46589;SDS011;32313;48.722;9.362;2022-12-17T00:04:36;44.00;;;38.47;;
46589;SDS011;32313;48.722;9.362;2022-12-17T00:07:20;41.83;;;37.00;;
46589;SDS011;32313;48.722;9.362;2022-12-17T00:10:05;43.97;;;38.40;;
46589;SDS011;32313;48.722;9.362;2022-12-17T00:12:50;43.03;;;38.57;;
46589;SDS011;32313;48.722;9.362;2022-12-17T00:15:34;45.67;;;38.23;;
46589;SDS011;32313;48.722;9.362;2022-12-17T00:18:19;46.13;;;40.90;;
46589;SDS011;32313;48.722;9.362;2022-12-17T00:21:04;57.90;;;44.47;;
46589;SDS011;32313;48.722;9.362;2022-12-17T00:23:49;44.10;;;39.40;;
46589;SDS011;32313;48.722;9.362;2022-12-17T00:26:33;47.07;;;41.30;;
46589;SDS011;32313;48.722;9.362;2022-12-17T00:29:19;46.63;;;40.40;;
46589;SDS011;32313;48.722;9.362;2022-12-17T00:32:03;49.97;;;41.63;;
46589;SDS011;32313;48.722;9.362;2022-12-17T00:34:49;49.27;;;41.23;;
46589;SDS011;32313;48.722;9.362;2022-12-17T00:37:33;47.60;;;40.73;;
46589;SDS011;32313;48.722;9.362;2022-12-17T00:40:17;50.87;;;42.80;;
46589;SDS011;32313;48.722;9.362;2022-12-17T00:43:02;46.57;;;41.70;;
46589;SDS011;32313;48.722;9.362;2022-12-17T00:45:48;46.97;;;41.30;;
46589;SDS011;32313;48.722;9.362;2022-12-17T00:48:33;51.10;;;42.50;;
46589;SDS011;32313;48.722;9.362;2022-12-17T00:51:17;54.33;;;44.43;;
46589;SDS011;32313;48.722;9.362;2022-12-17T00:54:02;45.97;;;41.20;;
46589;SDS011;32313;48.722;9.362;2022-12-17T00:56:47;49.93;;;44.63;;
46589;SDS011;32313;48.722;9.362;2022-12-17T00:59:32;50.43;;;43.17;;
46589;SDS011;32313;48.722;9.362;2022-12-17T01:02:16;55.83;;;45.87;;
46589;SDS011;32313;48.722;9.362;2022-12-17T01:05:01;56.93;;;44.07;;
46589;SDS011;32313;48.722;9.362;2022-12-17T01:07:45;50.97;;;42.40;;
46589;SDS011;32313;48.722;9.362;2022-12-17T01:10:30;53.47;;;44.73;;
46589;SDS011;32313;48.722;9.362;2022-12-17T01:13:14;52.93;;;45.67;;
46589;SDS011;32313;48.722;9.362;2022-12-17T01:16:03;50.90;;;44.10;;
46589;SDS011;32313;48.722;9.362;2022-12-17T01:18:50;58.13;;;46.20;;
46589;SDS011;32313;48.722;9.362;2022-12-17T01:21:35;52.77;;;46.27;;
46589;SDS011;32313;48.722;9.362;2022-12-17T01:24:19;56.17;;;43.83;;
46589;SDS011;32313;48.722;9.362;2022-12-17T01:27:04;56.43;;;44.93;;
46589;SDS011;32313;48.722;9.362;2022-12-17T01:29:49;58.60;;;46.87;;
46589;SDS011;32313;48.722;9.362;2022-12-17T01:32:34;54.83;;;46.83;;
46589;SDS011;32313;48.722;9.362;2022-12-17T01:35:18;53.37;;;46.43;;
46589;SDS011;32313;48.722;9.362;2022-12-17T01:38:09;54.73;;;45.47;;
46589;SDS011;32313;48.722;9.362;2022-12-17T01:40:54;60.57;;;46.57;;
46589;SDS011;32313;48.722;9.362;2022-12-17T01:43:39;54.27;;;46.50;;
46589;SDS011;32313;48.722;9.362;2022-12-17T01:46:25;55.67;;;46.53;;
46589;SDS011;32313;48.722;9.362;2022-12-17T01:49:13;56.70;;;44.13;;
46589;SDS011;32313;48.722;9.362;2022-12-17T01:51:57;54.43;;;46.50;;
46589;SDS011;32313;48.722;9.362;2022-12-17T01:54:43;47.53;;;41.10;;
46589;SDS011;32313;48.722;9.362;2022-12-17T01:57:28;52.57;;;43.83;;
46589;SDS011;32313;48.722;9.362;2022-12-17T02:00:14;62.77;;;49.17;;
46589;SDS011;32313;48.722;9.362;2022-12-17T02:03:01;55.77;;;47.57;;
46589;SDS011;32313;48.722;9.362;2022-12-17T02:16:06;55.43;;;47.53;;
46589;SDS011;32313;48.722;9.362;2022-12-17T02:18:42;51.60;;;44.20;;
46589;SDS011;32313;48.722;9.362;2022-12-17T02:21:38;61.00;;;47.13;;
46589;SDS011;32313;48.722;9.362;2022-12-17T02:24:36;60.17;;;48.83;;
46589;SDS011;32313;48.722;9.362;2022-12-17T02:27:30;53.30;;;42.27;;
46589;SDS011;32313;48.722;9.362;2022-12-17T02:30:17;49.33;;;43.67;;
46589;SDS011;32313;48.722;9.362;2022-12-17T02:33:01;60.40;;;48.57;;
46589;SDS011;32313;48.722;9.362;2022-12-17T02:35:50;68.60;;;51.13;;
46589;SDS011;32313;48.722;9.362;2022-12-17T02:38:42;65.67;;;53.53;;
46589;SDS011;32313;48.722;9.362;2022-12-17T02:41:29;68.53;;;52.40;;
46589;SDS011;32313;48.722;9.362;2022-12-17T02:44:18;59.50;;;48.57;;
46589;SDS011;32313;48.722;9.362;2022-12-17T02:47:06;54.23;;;46.90;;
46589;SDS011;32313;48.722;9.362;2022-12-17T02:49:52;53.57;;;46.53;;
46589;SDS011;32313;48.722;9.362;2022-12-17T02:52:38;59.87;;;47.03;;
46589;SDS011;32313;48.722;9.362;2022-12-17T02:55:25;50.50;;;42.47;;
46589;SDS011;32313;48.722;9.362;2022-12-17T02:58:11;47.67;;;42.17;;
46589;SDS011;32313;48.722;9.362;2022-12-17T03:00:55;54.47;;;44.97;;
46589;SDS011;32313;48.722;9.362;2022-12-17T03:03:39;46.83;;;41.93;;
46589;SDS011;32313;48.722;9.362;2022-12-17T03:06:23;45.30;;;40.20;;
46589;SDS011;32313;48.722;9.362;2022-12-17T03:09:07;46.47;;;41.50;;
46589;SDS011;32313;48.722;9.362;2022-12-17T03:11:52;42.87;;;38.57;;
46589;SDS011;32313;48.722;9.362;2022-12-17T03:14:36;42.73;;;38.13;;
46589;SDS011;32313;48.722;9.362;2022-12-17T03:17:21;41.13;;;36.63;;
46589;SDS011;32313;48.722;9.362;2022-12-17T03:20:06;40.97;;;36.70;;
46589;SDS011;32313;48.722;9.362;2022-12-17T03:22:51;47.23;;;42.43;;
46589;SDS011;32313;48.722;9.362;2022-12-17T03:25:35;42.67;;;38.17;;
46589;SDS011;32313;48.722;9.362;2022-12-17T03:28:19;49.60;;;42.83;;
46589;SDS011;32313;48.722;9.362;2022-12-17T03:31:03;44.83;;;40.03;;
46589;SDS011;32313;48.722;9.362;2022-12-17T03:33:48;45.97;;;40.07;;
46589;SDS011;32313;48.722;9.362;2022-12-17T03:36:32;44.67;;;39.97;;
46589;SDS011;32313;48.722;9.362;2022-12-17T03:39:17;49.03;;;42.13;;
46589;SDS011;32313;48.722;9.362;2022-12-17T03:42:01;47.93;;;40.23;;
46589;SDS011;32313;48.722;9.362;2022-12-17T03:44:45;45.30;;;40.03;;
46589;SDS011;32313;48.722;9.362;2022-12-17T03:47:30;48.77;;;41.93;;
46589;SDS011;32313;48.722;9.362;2022-12-17T03:50:14;44.73;;;39.90;;
46589;SDS011;32313;48.722;9.362;2022-12-17T03:53:01;43.67;;;38.50;;
46589;SDS011;32313;48.722;9.362;2022-12-17T03:55:47;46.83;;;40.80;;
46589;SDS011;32313;48.722;9.362;2022-12-17T03:58:31;52.77;;;40.33;;
46589;SDS011;32313;48.722;9.362;2022-12-17T04:01:16;44.73;;;39.40;;
46589;SDS011;32313;48.722;9.362;2022-12-17T04:04:00;56.03;;;41.50;;
46589;SDS011;32313;48.722;9.362;2022-12-17T04:06:45;48.43;;;41.93;;
46589;SDS011;32313;48.722;9.362;2022-12-17T04:09:29;55.77;;;42.03;;
46589;SDS011;32313;48.722;9.362;2022-12-17T04:12:13;45.10;;;40.20;;
46589;SDS011;32313;48.722;9.362;2022-12-17T04:14:57;46.40;;;39.53;;
46589;SDS011;32313;48.722;9.362;2022-12-17T04:17:42;46.27;;;40.63;;
46589;SDS011;32313;48.722;9.362;2022-12-17T04:20:26;52.80;;;44.40;;
46589;SDS011;32313;48.722;9.362;2022-12-17T04:23:11;47.77;;;41.20;;
46589;SDS011;32313;48.722;9.362;2022-12-17T04:25:55;47.30;;;39.87;;
46589;SDS011;32313;48.722;9.362;2022-12-17T04:28:39;53.80;;;41.93;;
46589;SDS011;32313;48.722;9.362;2022-12-17T04:31:24;47.33;;;41.37;;
46589;SDS011;32313;48.722;9.362;2022-12-17T04:34:08;49.00;;;40.83;;
46589;SDS011;32313;48.722;9.362;2022-12-17T04:36:53;48.40;;;40.70;;
46589;SDS011;32313;48.722;9.362;2022-12-17T04:39:37;48.97;;;41.17;;
46589;SDS011;32313;48.722;9.362;2022-12-17T04:42:21;47.07;;;38.83;;
46589;SDS011;32313;48.722;9.362;2022-12-17T04:45:06;49.47;;;43.23;;
46589;SDS011;32313;48.722;9.362;2022-12-17T04:47:59;48.13;;;40.97;;
46589;SDS011;32313;48.722;9.362;2022-12-17T04:50:44;45.80;;;38.20;;
46589;SDS011;32313;48.722;9.362;2022-12-17T04:53:28;47.50;;;42.10;;
46589;SDS011;32313;48.722;9.362;2022-12-17T04:56:13;45.13;;;38.57;;
46589;SDS011;32313;48.722;9.362;2022-12-17T04:58:57;46.90;;;41.13;;
46589;SDS011;32313;48.722;9.362;2022-12-17T05:01:41;45.40;;;40.27;;
46589;SDS011;32313;48.722;9.362;2022-12-17T05:04:26;45.97;;;40.10;;
46589;SDS011;32313;48.722;9.362;2022-12-17T05:07:10;43.37;;;38.23;;
46589;SDS011;32313;48.722;9.362;2022-12-17T05:09:54;47.13;;;40.50;;
46589;SDS011;32313;48.722;9.362;2022-12-17T05:12:38;46.57;;;39.87;;
46589;SDS011;32313;48.722;9.362;2022-12-17T05:15:25;44.57;;;37.80;;
46589;SDS011;32313;48.722;9.362;2022-12-17T05:18:10;47.30;;;39.87;;
46589;SDS011;32313;48.722;9.362;2022-12-17T05:20:54;47.80;;;40.77;;
46589;SDS011;32313;48.722;9.362;2022-12-17T05:23:38;41.63;;;35.97;;
46589;SDS011;32313;48.722;9.362;2022-12-17T05:26:24;47.60;;;39.00;;
46589;SDS011;32313;48.722;9.362;2022-12-17T05:29:09;48.50;;;39.03;;
46589;SDS011;32313;48.722;9.362;2022-12-17T05:31:54;50.27;;;40.07;;
46589;SDS011;32313;48.722;9.362;2022-12-17T05:34:39;45.63;;;38.77;;
46589;SDS011;32313;48.722;9.362;2022-12-17T05:37:23;44.73;;;38.07;;
46589;SDS011;32313;48.722;9.362;2022-12-17T05:40:08;53.43;;;42.87;;
46589;SDS011;32313;48.722;9.362;2022-12-17T05:42:57;49.07;;;38.53;;
46589;SDS011;32313;48.722;9.362;2022-12-17T05:45:43;56.00;;;43.10;;
46589;SDS011;32313;48.722;9.362;2022-12-17T05:48:28;57.23;;;44.03;;
46589;SDS011;32313;48.722;9.362;2022-12-17T05:51:13;59.83;;;44.40;;
46589;SDS011;32313;48.722;9.362;2022-12-17T05:53:57;50.83;;;43.57;;
46589;SDS011;32313;48.722;9.362;2022-12-17T05:56:42;56.00;;;42.63;;
46589;SDS011;32313;48.722;9.362;2022-12-17T05:59:26;61.10;;;46.97;;
46589;SDS011;32313;48.722;9.362;2022-12-17T06:02:10;95.97;;;80.50;;
46589;SDS011;32313;48.722;9.362;2022-12-17T06:04:55;72.57;;;55.63;;
46589;SDS011;32313;48.722;9.362;2022-12-17T06:07:40;70.00;;;52.93;;
46589;SDS011;32313;48.722;9.362;2022-12-17T06:10:24;72.30;;;52.17;;
46589;SDS011;32313;48.722;9.362;2022-12-17T06:13:09;79.23;;;53.00;;
46589;SDS011;32313;48.722;9.362;2022-12-17T06:15:53;77.07;;;50.70;;
46589;SDS011;32313;48.722;9.362;2022-12-17T06:18:37;70.37;;;48.13;;
46589;SDS011;32313;48.722;9.362;2022-12-17T06:21:29;68.00;;;48.00;;
46589;SDS011;32313;48.722;9.362;2022-12-17T06:24:14;68.37;;;47.40;;
46589;SDS011;32313;48.722;9.362;2022-12-17T06:26:58;70.93;;;46.80;;
46589;SDS011;32313;48.722;9.362;2022-12-17T06:29:43;63.43;;;45.80;;
46589;SDS011;32313;48.722;9.362;2022-12-17T06:32:27;65.83;;;47.93;;
46589;SDS011;32313;48.722;9.362;2022-12-17T06:35:11;66.40;;;47.47;;
46589;SDS011;32313;48.722;9.362;2022-12-17T06:37:57;64.83;;;50.13;;
46589;SDS011;32313;48.722;9.362;2022-12-17T06:41:00;57.77;;;43.47;;
46589;SDS011;32313;48.722;9.362;2022-12-17T06:43:44;58.33;;;42.40;;
46589;SDS011;32313;48.722;9.362;2022-12-17T06:46:29;56.07;;;42.70;;
46589;SDS011;32313;48.722;9.362;2022-12-17T06:49:13;46.43;;;39.07;;
46589;SDS011;32313;48.722;9.362;2022-12-17T06:51:58;45.70;;;38.00;;
46589;SDS011;32313;48.722;9.362;2022-12-17T06:54:42;48.87;;;37.73;;
46589;SDS011;32313;48.722;9.362;2022-12-17T06:57:26;52.97;;;39.90;;
46589;SDS011;32313;48.722;9.362;2022-12-17T07:00:14;45.87;;;40.27;;
46589;SDS011;32313;48.722;9.362;2022-12-17T07:02:58;45.63;;;38.93;;
46589;SDS011;32313;48.722;9.362;2022-12-17T07:05:42;51.70;;;39.83;;
46589;SDS011;32313;48.722;9.362;2022-12-17T07:08:27;50.10;;;39.87;;
46589;SDS011;32313;48.722;9.362;2022-12-17T07:11:11;50.90;;;40.40;;
46589;SDS011;32313;48.722;9.362;2022-12-17T07:13:56;51.40;;;40.90;;
46589;SDS011;32313;48.722;9.362;2022-12-17T07:16:40;55.87;;;40.13;;
46589;SDS011;32313;48.722;9.362;2022-12-17T07:19:25;50.70;;;39.73;;
46589;SDS011;32313;48.722;9.362;2022-12-17T07:22:09;53.20;;;41.33;;
46589;SDS011;32313;48.722;9.362;2022-12-17T07:24:53;56.10;;;42.07;;
46589;SDS011;32313;48.722;9.362;2022-12-17T07:27:38;54.27;;;40.83;;
46589;SDS011;32313;48.722;9.362;2022-12-17T07:30:22;56.83;;;41.20;;
46589;SDS011;32313;48.722;9.362;2022-12-17T07:33:07;63.77;;;45.70;;
46589;SDS011;32313;48.722;9.362;2022-12-17T07:35:53;59.07;;;42.67;;
46589;SDS011;32313;48.722;9.362;2022-12-17T07:38:38;58.50;;;41.40;;
46589;SDS011;32313;48.722;9.362;2022-12-17T07:41:23;52.30;;;40.03;;
46589;SDS011;32313;48.722;9.362;2022-12-17T07:44:08;134.27;;;68.20;;
46589;SDS011;32313;48.722;9.362;2022-12-17T07:46:53;98.93;;;54.03;;
46589;SDS011;32313;48.722;9.362;2022-12-17T07:49:37;318.00;;;150.90;;
46589;SDS011;32313;48.722;9.362;2022-12-17T07:52:21;72.37;;;48.17;;
46589;SDS011;32313;48.722;9.362;2022-12-17T07:55:06;59.50;;;44.77;;
46589;SDS011;32313;48.722;9.362;2022-12-17T07:57:58;54.77;;;39.77;;
46589;SDS011;32313;48.722;9.362;2022-12-17T08:00:47;54.83;;;41.37;;
46589;SDS011;32313;48.722;9.362;2022-12-17T08:03:32;52.03;;;39.80;;
46589;SDS011;32313;48.722;9.362;2022-12-17T08:06:16;52.27;;;46.00;;
46589;SDS011;32313;48.722;9.362;2022-12-17T08:09:00;51.37;;;39.67;;
46589;SDS011;32313;48.722;9.362;2022-12-17T08:11:44;45.03;;;39.13;;
46589;SDS011;32313;48.722;9.362;2022-12-17T08:14:29;45.53;;;40.53;;
46589;SDS011;32313;48.722;9.362;2022-12-17T08:17:13;46.03;;;39.67;;
46589;SDS011;32313;48.722;9.362;2022-12-17T08:19:58;41.63;;;37.07;;
46589;SDS011;32313;48.722;9.362;2022-12-17T08:22:42;43.70;;;36.93;;
46589;SDS011;32313;48.722;9.362;2022-12-17T08:25:26;41.53;;;36.87;;
46589;SDS011;32313;48.722;9.362;2022-12-17T08:28:10;47.60;;;38.23;;
46589;SDS011;32313;48.722;9.362;2022-12-17T08:30:54;41.37;;;35.87;;
46589;SDS011;32313;48.722;9.362;2022-12-17T08:33:39;45.43;;;39.50;;
46589;SDS011;32313;48.722;9.362;2022-12-17T08:36:23;44.87;;;38.23;;
46589;SDS011;32313;48.722;9.362;2022-12-17T08:39:08;49.80;;;37.93;;
46589;SDS011;32313;48.722;9.362;2022-12-17T08:41:52;48.20;;;41.17;;
46589;SDS011;32313;48.722;9.362;2022-12-17T08:44:37;47.97;;;41.37;;
46589;SDS011;32313;48.722;9.362;2022-12-17T08:47:21;44.30;;;39.50;;
46589;SDS011;32313;48.722;9.362;2022-12-17T08:50:06;46.03;;;38.50;;
46589;SDS011;32313;48.722;9.362;2022-12-17T08:52:57;47.90;;;40.00;;
46589;SDS011;32313;48.722;9.362;2022-12-17T08:55:42;51.90;;;41.57;;
46589;SDS011;32313;48.722;9.362;2022-12-17T08:58:27;48.23;;;40.10;;
46589;SDS011;32313;48.722;9.362;2022-12-17T09:01:11;52.87;;;41.37;;
46589;SDS011;32313;48.722;9.362;2022-12-17T09:03:55;48.67;;;39.77;;
46589;SDS011;32313;48.722;9.362;2022-12-17T09:06:40;49.67;;;39.83;;
46589;SDS011;32313;48.722;9.362;2022-12-17T09:09:26;52.47;;;40.27;;
46589;SDS011;32313;48.722;9.362;2022-12-17T09:12:10;49.83;;;41.73;;
46589;SDS011;32313;48.722;9.362;2022-12-17T09:14:54;48.03;;;40.20;;
46589;SDS011;32313;48.722;9.362;2022-12-17T09:17:39;55.63;;;42.63;;
46589;SDS011;32313;48.722;9.362;2022-12-17T09:20:23;57.30;;;43.20;;
46589;SDS011;32313;48.722;9.362;2022-12-17T09:23:07;52.27;;;42.70;;
46589;SDS011;32313;48.722;9.362;2022-12-17T09:25:52;52.30;;;40.70;;
46589;SDS011;32313;48.722;9.362;2022-12-17T09:28:38;54.40;;;43.60;;
46589;SDS011;32313;48.722;9.362;2022-12-17T09:31:22;53.20;;;43.20;;
46589;SDS011;32313;48.722;9.362;2022-12-17T09:34:07;50.07;;;41.60;;
46589;SDS011;32313;48.722;9.362;2022-12-17T09:36:51;50.90;;;40.90;;
46589;SDS011;32313;48.722;9.362;2022-12-17T09:39:36;53.77;;;42.13;;
46589;SDS011;32313;48.722;9.362;2022-12-17T09:42:21;54.03;;;43.63;;
46589;SDS011;32313;48.722;9.362;2022-12-17T09:45:18;52.97;;;42.97;;
46589;SDS011;32313;48.722;9.362;2022-12-17T09:48:07;84.07;;;75.27;;
46589;SDS011;32313;48.722;9.362;2022-12-17T09:51:04;56.60;;;46.73;;
46589;SDS011;32313;48.722;9.362;2022-12-17T09:53:51;50.23;;;43.10;;
46589;SDS011;32313;48.722;9.362;2022-12-17T09:56:37;52.90;;;42.77;;
46589;SDS011;32313;48.722;9.362;2022-12-17T09:59:28;51.93;;;42.63;;
46589;SDS011;32313;48.722;9.362;2022-12-17T10:02:17;48.67;;;41.53;;
46589;SDS011;32313;48.722;9.362;2022-12-17T10:05:13;51.83;;;43.70;;
46589;SDS011;32313;48.722;9.362;2022-12-17T10:08:09;57.10;;;44.27;;
46589;SDS011;32313;48.722;9.362;2022-12-17T10:11:21;48.77;;;41.87;;
46589;SDS011;32313;48.722;9.362;2022-12-17T10:14:19;53.07;;;43.63;;
46589;SDS011;32313;48.722;9.362;2022-12-17T10:20:21;57.13;;;47.27;;
46589;SDS011;32313;48.722;9.362;2022-12-17T10:23:21;49.27;;;41.93;;
46589;SDS011;32313;48.722;9.362;2022-12-17T10:26:14;54.23;;;43.20;;
46589;SDS011;32313;48.722;9.362;2022-12-17T10:29:02;55.50;;;43.37;;
46589;SDS011;32313;48.722;9.362;2022-12-17T10:31:54;53.67;;;43.67;;
46589;SDS011;32313;48.722;9.362;2022-12-17T10:34:51;55.47;;;43.90;;
46589;SDS011;32313;48.722;9.362;2022-12-17T10:37:36;56.93;;;45.00;;
46589;SDS011;32313;48.722;9.362;2022-12-17T10:40:23;58.90;;;45.33;;
46589;SDS011;32313;48.722;9.362;2022-12-17T10:43:27;52.70;;;42.83;;
46589;SDS011;32313;48.722;9.362;2022-12-17T10:49:13;50.27;;;40.90;;
46589;SDS011;32313;48.722;9.362;2022-12-17T10:52:26;51.73;;;42.23;;
46589;SDS011;32313;48.722;9.362;2022-12-17T10:55:21;54.60;;;42.20;;
46589;SDS011;32313;48.722;9.362;2022-12-17T10:58:11;55.17;;;41.50;;
46589;SDS011;32313;48.722;9.362;2022-12-17T11:01:11;52.40;;;40.73;;
46589;SDS011;32313;48.722;9.362;2022-12-17T11:07:09;54.43;;;43.90;;
46589;SDS011;32313;48.722;9.362;2022-12-17T11:10:02;58.13;;;44.37;;
46589;SDS011;32313;48.722;9.362;2022-12-17T11:18:51;56.47;;;47.27;;
46589;SDS011;32313;48.722;9.362;2022-12-17T11:21:42;57.77;;;44.90;;
46589;SDS011;32313;48.722;9.362;2022-12-17T11:25:25;56.40;;;45.77;;
46589;SDS011;32313;48.722;9.362;2022-12-17T11:28:21;54.10;;;45.07;;
46589;SDS011;32313;48.722;9.362;2022-12-17T11:34:04;54.87;;;43.43;;
46589;SDS011;32313;48.722;9.362;2022-12-17T11:36:53;64.03;;;48.67;;
46589;SDS011;32313;48.722;9.362;2022-12-17T11:39:53;54.70;;;45.67;;
46589;SDS011;32313;48.722;9.362;2022-12-17T11:42:43;56.87;;;44.43;;
46589;SDS011;32313;48.722;9.362;2022-12-17T11:51:33;59.30;;;45.57;;
46589;SDS011;32313;48.722;9.362;2022-12-17T11:54:35;61.83;;;45.50;;
46589;SDS011;32313;48.722;9.362;2022-12-17T12:00:27;60.10;;;50.50;;
46589;SDS011;32313;48.722;9.362;2022-12-17T12:15:41;53.57;;;44.00;;
46589;SDS011;32313;48.722;9.362;2022-12-17T12:27:16;51.23;;;42.37;;
46589;SDS011;32313;48.722;9.362;2022-12-17T12:30:38;57.10;;;45.80;;
46589;SDS011;32313;48.722;9.362;2022-12-17T12:36:36;49.00;;;41.73;;
46589;SDS011;32313;48.722;9.362;2022-12-17T12:39:48;49.10;;;42.43;;
46589;SDS011;32313;48.722;9.362;2022-12-17T12:42:31;52.27;;;41.87;;
46589;SDS011;32313;48.722;9.362;2022-12-17T12:45:30;57.03;;;47.30;;
46589;SDS011;32313;48.722;9.362;2022-12-17T12:51:34;58.90;;;46.90;;
46589;SDS011;32313;48.722;9.362;2022-12-17T13:00:49;52.27;;;42.70;;
46589;SDS011;32313;48.722;9.362;2022-12-17T13:03:39;57.80;;;45.10;;
46589;SDS011;32313;48.722;9.362;2022-12-17T13:11:39;57.20;;;46.20;;
46589;SDS011;32313;48.722;9.362;2022-12-17T13:14:10;54.97;;;45.43;;
46589;SDS011;32313;48.722;9.362;2022-12-17T13:19:19;61.60;;;46.80;;
46589;SDS011;32313;48.722;9.362;2022-12-17T13:21:54;61.07;;;46.70;;
46589;SDS011;32313;48.722;9.362;2022-12-17T13:24:24;55.00;;;45.53;;
46589;SDS011;32313;48.722;9.362;2022-12-17T13:26:51;55.83;;;45.03;;
46589;SDS011;32313;48.722;9.362;2022-12-17T13:29:22;58.30;;;46.97;;
46589;SDS011;32313;48.722;9.362;2022-12-17T13:40:03;54.60;;;43.57;;
46589;SDS011;32313;48.722;9.362;2022-12-17T13:42:57;52.10;;;44.07;;
46589;SDS011;32313;48.722;9.362;2022-12-17T13:45:23;50.57;;;42.00;;
46589;SDS011;32313;48.722;9.362;2022-12-17T13:47:54;51.60;;;43.47;;
46589;SDS011;32313;48.722;9.362;2022-12-17T13:50:24;50.90;;;42.57;;
46589;SDS011;32313;48.722;9.362;2022-12-17T13:52:51;54.50;;;43.60;;
46589;SDS011;32313;48.722;9.362;2022-12-17T13:55:22;53.63;;;44.03;;
46589;SDS011;32313;48.722;9.362;2022-12-17T13:57:50;49.80;;;41.13;;
46589;SDS011;32313;48.722;9.362;2022-12-17T14:00:17;56.70;;;45.30;;
46589;SDS011;32313;48.722;9.362;2022-12-17T14:02:45;52.27;;;44.10;;
46589;SDS011;32313;48.722;9.362;2022-12-17T14:05:28;53.37;;;43.47;;
46589;SDS011;32313;48.722;9.362;2022-12-17T14:07:58;60.83;;;48.90;;
46589;SDS011;32313;48.722;9.362;2022-12-17T14:10:26;56.50;;;48.23;;
46589;SDS011;32313;48.722;9.362;2022-12-17T14:13:08;60.20;;;48.67;;
46589;SDS011;32313;48.722;9.362;2022-12-17T14:15:43;53.70;;;44.50;;
46589;SDS011;32313;48.722;9.362;2022-12-17T14:18:14;55.23;;;43.83;;
46589;SDS011;32313;48.722;9.362;2022-12-17T14:20:43;53.13;;;43.43;;
46589;SDS011;32313;48.722;9.362;2022-12-17T14:23:13;53.93;;;43.73;;
46589;SDS011;32313;48.722;9.362;2022-12-17T14:25:46;58.57;;;45.87;;
46589;SDS011;32313;48.722;9.362;2022-12-17T14:31:19;50.67;;;41.57;;
46589;SDS011;32313;48.722;9.362;2022-12-17T14:36:39;62.13;;;48.43;;
46589;SDS011;32313;48.722;9.362;2022-12-17T14:39:17;58.83;;;45.43;;
46589;SDS011;32313;48.722;9.362;2022-12-17T14:41:54;59.70;;;45.47;;
46589;SDS011;32313;48.722;9.362;2022-12-17T14:45:02;56.30;;;46.07;;
46589;SDS011;32313;48.722;9.362;2022-12-17T14:47:31;60.40;;;47.77;;
46589;SDS011;32313;48.722;9.362;2022-12-17T14:52:44;66.33;;;48.17;;
46589;SDS011;32313;48.722;9.362;2022-12-17T14:57:49;65.80;;;47.73;;
46589;SDS011;32313;48.722;9.362;2022-12-17T15:00:16;66.83;;;46.53;;
46589;SDS011;32313;48.722;9.362;2022-12-17T15:02:43;67.77;;;51.50;;
46589;SDS011;32313;48.722;9.362;2022-12-17T15:05:14;75.30;;;53.20;;
46589;SDS011;32313;48.722;9.362;2022-12-17T15:07:40;73.73;;;52.33;;
46589;SDS011;32313;48.722;9.362;2022-12-17T15:10:10;71.83;;;53.73;;
46589;SDS011;32313;48.722;9.362;2022-12-17T15:12:37;73.97;;;51.77;;
46589;SDS011;32313;48.722;9.362;2022-12-17T15:15:06;77.60;;;52.57;;
46589;SDS011;32313;48.722;9.362;2022-12-17T15:17:32;70.57;;;53.20;;
46589;SDS011;32313;48.722;9.362;2022-12-17T15:19:58;71.03;;;52.57;;
46589;SDS011;32313;48.722;9.362;2022-12-17T15:22:23;71.70;;;48.37;;
46589;SDS011;32313;48.722;9.362;2022-12-17T15:24:49;68.20;;;53.67;;
46589;SDS011;32313;48.722;9.362;2022-12-17T15:27:15;82.00;;;54.73;;
46589;SDS011;32313;48.722;9.362;2022-12-17T15:29:43;65.67;;;48.73;;
46589;SDS011;32313;48.722;9.362;2022-12-17T15:32:17;66.80;;;49.07;;
46589;SDS011;32313;48.722;9.362;2022-12-17T15:34:47;69.93;;;51.40;;
46589;SDS011;32313;48.722;9.362;2022-12-17T15:37:13;73.77;;;51.00;;
46589;SDS011;32313;48.722;9.362;2022-12-17T15:39:39;77.00;;;54.57;;
46589;SDS011;32313;48.722;9.362;2022-12-17T15:42:05;76.67;;;54.10;;
46589;SDS011;32313;48.722;9.362;2022-12-17T15:44:49;73.60;;;53.13;;
46589;SDS011;32313;48.722;9.362;2022-12-17T15:47:15;77.47;;;55.93;;
46589;SDS011;32313;48.722;9.362;2022-12-17T15:49:41;73.90;;;54.67;;
46589;SDS011;32313;48.722;9.362;2022-12-17T15:52:08;76.60;;;53.67;;
46589;SDS011;32313;48.722;9.362;2022-12-17T15:54:35;75.87;;;55.33;;
46589;SDS011;32313;48.722;9.362;2022-12-17T15:57:00;87.73;;;58.03;;
46589;SDS011;32313;48.722;9.362;2022-12-17T15:59:26;77.90;;;51.73;;
46589;SDS011;32313;48.722;9.362;2022-12-17T16:01:52;93.53;;;61.53;;
46589;SDS011;32313;48.722;9.362;2022-12-17T16:04:18;94.70;;;60.67;;
46589;SDS011;32313;48.722;9.362;2022-12-17T16:06:43;95.33;;;63.00;;
46589;SDS011;32313;48.722;9.362;2022-12-17T16:09:09;92.17;;;62.77;;
46589;SDS011;32313;48.722;9.362;2022-12-17T16:11:35;81.10;;;56.73;;
46589;SDS011;32313;48.722;9.362;2022-12-17T16:14:01;92.47;;;60.07;;
46589;SDS011;32313;48.722;9.362;2022-12-17T16:16:27;89.17;;;61.43;;
46589;SDS011;32313;48.722;9.362;2022-12-17T16:18:53;94.20;;;59.93;;
46589;SDS011;32313;48.722;9.362;2022-12-17T16:21:19;97.13;;;65.50;;
46589;SDS011;32313;48.722;9.362;2022-12-17T16:23:44;219.27;;;113.43;;
46589;SDS011;32313;48.722;9.362;2022-12-17T16:26:10;138.73;;;79.90;;
46589;SDS011;32313;48.722;9.362;2022-12-17T16:28:36;169.47;;;88.47;;
46589;SDS011;32313;48.722;9.362;2022-12-17T16:31:06;140.57;;;78.23;;
46589;SDS011;32313;48.722;9.362;2022-12-17T16:33:34;151.77;;;81.13;;
46589;SDS011;32313;48.722;9.362;2022-12-17T16:36:02;170.40;;;91.53;;
46589;SDS011;32313;48.722;9.362;2022-12-17T16:38:29;141.07;;;77.30;;
46589;SDS011;32313;48.722;9.362;2022-12-17T16:40:59;143.30;;;76.37;;
46589;SDS011;32313;48.722;9.362;2022-12-17T16:43:27;128.67;;;75.17;;
46589;SDS011;32313;48.722;9.362;2022-12-17T16:45:56;127.73;;;74.07;;
46589;SDS011;32313;48.722;9.362;2022-12-17T16:48:22;138.23;;;72.30;;
46589;SDS011;32313;48.722;9.362;2022-12-17T16:50:48;130.27;;;71.77;;
46589;SDS011;32313;48.722;9.362;2022-12-17T16:53:15;128.60;;;73.23;;
46589;SDS011;32313;48.722;9.362;2022-12-17T16:55:42;116.50;;;69.40;;
46589;SDS011;32313;48.722;9.362;2022-12-17T16:58:12;136.90;;;74.57;;
46589;SDS011;32313;48.722;9.362;2022-12-17T17:00:39;114.70;;;66.80;;
46589;SDS011;32313;48.722;9.362;2022-12-17T17:03:05;138.73;;;77.67;;
46589;SDS011;32313;48.722;9.362;2022-12-17T17:05:32;150.67;;;78.67;;
46589;SDS011;32313;48.722;9.362;2022-12-17T17:07:59;150.33;;;76.60;;
46589;SDS011;32313;48.722;9.362;2022-12-17T17:10:26;129.60;;;73.33;;
46589;SDS011;32313;48.722;9.362;2022-12-17T17:12:52;128.47;;;70.63;;
46589;SDS011;32313;48.722;9.362;2022-12-17T17:15:18;134.87;;;73.13;;
46589;SDS011;32313;48.722;9.362;2022-12-17T17:17:44;142.10;;;76.87;;
46589;SDS011;32313;48.722;9.362;2022-12-17T17:20:10;111.67;;;61.93;;
46589;SDS011;32313;48.722;9.362;2022-12-17T17:22:36;111.07;;;66.77;;
46589;SDS011;32313;48.722;9.362;2022-12-17T17:25:02;116.77;;;68.40;;
46589;SDS011;32313;48.722;9.362;2022-12-17T17:27:29;131.97;;;74.97;;